Time;durP1;ratioP1;P1;durP2;ratioP2;P2;SDS_P1;SDS_P2;PMS_P1;PMS_P2;Temp;Humidity;BMP_temperature;BMP_pressure;BME280_temperature;BME280_humidity;BME280_pressure;Samples;Min_cycle;Max_cycle;Signal;HPM_P1;HPM_P2
2021/05/02 00:00:40;;;;;;;2.15;0.57;;;15.20;60.40;;;;;;6167701;23;20477;-75
2021/05/02 00:03:07;;;;;;;2.63;0.77;;;15.10;60.40;;;;;;6157787;23;20017;-75
2021/05/02 00:05:35;;;;;;;1.67;0.65;;;15.10;60.40;;;;;;6167852;23;20071;-74
2021/05/02 00:08:01;;;;;;;1.67;0.45;;;15.20;60.40;;;;;;6169631;23;20075;-75
2021/05/02 00:10:30;;;;;;;1.65;0.50;;;15.20;60.40;;;;;;6169398;23;20013;-75
2021/05/02 00:12:58;;;;;;;1.95;0.50;;;15.10;60.40;;;;;;6170053;23;20020;-75
2021/05/02 00:15:28;;;;;;;1.88;0.45;;;15.20;60.50;;;;;;6169381;23;20084;-75
2021/05/02 00:17:56;;;;;;;2.17;0.70;;;15.20;60.50;;;;;;6169439;23;20188;-75
2021/05/02 00:20:24;;;;;;;3.08;0.73;;;15.10;60.30;;;;;;6159758;23;20018;-74
2021/05/02 00:22:52;;;;;;;2.80;0.50;;;15.10;60.30;;;;;;6169070;23;20306;-75
2021/05/02 00:25:22;;;;;;;2.60;0.90;;;15.10;60.30;;;;;;6169273;23;20014;-75
2021/05/02 00:27:48;;;;;;;2.50;0.70;;;15.10;60.30;;;;;;6159426;23;20324;-75
2021/05/02 00:30:19;;;;;;;2.28;0.77;;;15.10;60.30;;;;;;6169181;23;20009;-74
2021/05/02 00:32:47;;;;;;;2.17;0.80;;;15.10;60.20;;;;;;6168969;23;20013;-74
2021/05/02 00:35:15;;;;;;;2.85;0.63;;;15.10;60.20;;;;;;6169890;23;20024;-75
2021/05/02 00:37:42;;;;;;;1.40;0.57;;;15.10;60.30;;;;;;6169150;23;20017;-74
2021/05/02 00:40:14;;;;;;;2.33;0.63;;;15.10;60.20;;;;;;6169738;23;20017;-75
2021/05/02 00:42:51;;;;;;;1.50;0.80;;;15.10;60.20;;;;;;6159093;23;20303;-75
2021/05/02 00:45:34;;;;;;;2.90;0.80;;;15.10;60.10;;;;;;6166525;23;20020;-75
2021/05/02 00:48:09;;;;;;;3.97;0.88;;;15.10;60.10;;;;;;6169202;23;20414;-75
2021/05/02 00:50:48;;;;;;;2.75;0.90;;;15.10;60.10;;;;;;6169595;23;20013;-75
2021/05/02 00:53:20;;;;;;;1.42;0.40;;;15.10;60.00;;;;;;6144954;23;20010;-74
2021/05/02 00:55:57;;;;;;;1.48;0.40;;;15.10;60.00;;;;;;6158844;23;20555;-75
2021/05/02 00:58:31;;;;;;;1.80;0.70;;;15.10;60.00;;;;;;6169276;23;20426;-76
2021/05/02 01:01:00;;;;;;;3.65;0.80;;;15.10;60.00;;;;;;6169655;23;20006;-75
2021/05/02 01:03:32;;;;;;;1.80;0.50;;;15.10;60.10;;;;;;6168979;23;20032;-75
2021/05/02 01:06:02;;;;;;;2.03;0.80;;;15.10;60.10;;;;;;6142899;23;20353;-75
2021/05/02 01:08:29;;;;;;;1.65;0.50;;;15.10;60.10;;;;;;6158908;23;20041;-74
2021/05/02 01:11:00;;;;;;;1.30;0.63;;;15.00;60.10;;;;;;6169163;23;20010;-74
2021/05/02 01:13:29;;;;;;;3.05;0.88;;;15.00;60.10;;;;;;6169520;23;20024;-75
2021/05/02 01:15:58;;;;;;;2.95;0.95;;;15.10;60.10;;;;;;6169512;23;20089;-74
2021/05/02 01:18:25;;;;;;;3.63;0.68;;;15.10;60.10;;;;;;6168889;23;20013;-75
2021/05/02 01:20:53;;;;;;;1.02;0.50;;;15.00;60.00;;;;;;6168457;23;20044;-74
2021/05/02 01:23:22;;;;;;;1.80;0.60;;;15.00;60.00;;;;;;6168805;23;20013;-75
2021/05/02 01:25:55;;;;;;;1.55;0.50;;;15.00;60.00;;;;;;6159662;23;20014;-75
2021/05/02 01:28:21;;;;;;;1.52;0.52;;;15.00;60.10;;;;;;6168701;23;20033;-75
2021/05/02 01:30:48;;;;;;;2.25;0.50;;;15.00;60.10;;;;;;6168608;23;20017;-75
2021/05/02 01:33:15;;;;;;;1.75;0.60;;;15.00;60.00;;;;;;6168813;23;20099;-74
2021/05/02 01:35:42;;;;;;;1.95;0.70;;;15.00;60.00;;;;;;6168422;23;20361;-74
2021/05/02 01:38:08;;;;;;;2.03;0.68;;;15.00;60.00;;;;;;6158540;23;20032;-75
2021/05/02 01:40:34;;;;;;;2.58;0.60;;;15.00;59.90;;;;;;6168594;23;20013;-75
2021/05/02 01:43:01;;;;;;;1.20;0.50;;;15.00;60.00;;;;;;6158583;23;20044;-75
2021/05/02 01:45:27;;;;;;;2.75;0.50;;;15.00;59.90;;;;;;6165913;23;20013;-75
2021/05/02 01:48:01;;;;;;;2.53;0.88;;;15.00;60.00;;;;;;6168435;23;20029;-75
2021/05/02 01:50:27;;;;;;;2.35;0.63;;;15.00;59.90;;;;;;6168257;23;20298;-75
2021/05/02 01:52:54;;;;;;;4.20;1.00;;;15.00;59.90;;;;;;6157966;23;20014;-75
2021/05/02 01:55:21;;;;;;;1.90;0.82;;;15.00;59.90;;;;;;6167997;23;20017;-75
2021/05/02 01:57:49;;;;;;;1.10;0.70;;;15.00;59.90;;;;;;6158654;23;20014;-75
2021/05/02 02:00:24;;;;;;;3.20;0.80;;;15.00;59.80;;;;;;6168740;23;20020;-75
2021/05/02 02:02:51;;;;;;;1.38;0.40;;;15.00;59.80;;;;;;6168549;23;20067;-75
2021/05/02 02:05:21;;;;;;;2.17;0.80;;;15.00;59.80;;;;;;6158740;23;20049;-75
2021/05/02 02:07:47;;;;;;;2.88;0.52;;;15.00;59.80;;;;;;6167927;23;20096;-75
2021/05/02 02:10:16;;;;;;;2.85;0.93;;;15.00;59.80;;;;;;6158366;23;20019;-75
2021/05/02 02:12:44;;;;;;;3.38;0.63;;;15.00;59.80;;;;;;6168801;23;20075;-75
2021/05/02 02:15:10;;;;;;;1.35;0.55;;;14.90;59.70;;;;;;6167932;23;20295;-75
2021/05/02 02:17:37;;;;;;;1.23;0.52;;;15.00;59.70;;;;;;6168597;23;20295;-75
2021/05/02 02:20:05;;;;;;;2.75;0.77;;;14.90;59.70;;;;;;6157772;23;20431;-75
2021/05/02 02:22:37;;;;;;;1.85;0.60;;;14.90;59.70;;;;;;6168225;23;20013;-75
2021/05/02 02:25:04;;;;;;;1.23;0.60;;;14.90;59.60;;;;;;6158630;23;20041;-75
2021/05/02 02:27:32;;;;;;;1.80;0.80;;;14.90;59.70;;;;;;6168195;23;20072;-75
2021/05/02 02:30:04;;;;;;;2.20;0.82;;;14.90;59.60;;;;;;6167798;23;20013;-75
2021/05/02 02:32:44;;;;;;;1.50;0.60;;;14.90;59.70;;;;;;6158086;23;20288;-74
2021/05/02 02:35:14;;;;;;;2.45;0.68;;;14.90;59.60;;;;;;6168132;23;20013;-75
2021/05/02 02:37:44;;;;;;;1.90;0.60;;;14.90;59.60;;;;;;6168085;23;20017;-75
2021/05/02 02:40:15;;;;;;;1.73;0.70;;;14.90;59.60;;;;;;6168081;23;20351;-74
2021/05/02 02:42:45;;;;;;;3.28;0.68;;;14.90;59.60;;;;;;6167697;23;20426;-74
2021/05/02 02:45:13;;;;;;;2.13;0.45;;;14.90;59.60;;;;;;6166833;23;20033;-75
2021/05/02 02:47:50;;;;;;;1.95;0.70;;;14.90;59.60;;;;;;6167991;23;20013;-74
2021/05/02 02:50:20;;;;;;;2.90;0.90;;;14.90;59.60;;;;;;6158374;23;20024;-75
2021/05/02 02:52:50;;;;;;;2.70;0.82;;;14.90;59.60;;;;;;6141834;23;20084;-75
2021/05/02 02:55:17;;;;;;;1.15;0.57;;;14.80;59.50;;;;;;6167807;23;20040;-75
2021/05/02 02:57:53;;;;;;;1.67;0.75;;;14.90;59.60;;;;;;6167585;23;20025;-75
2021/05/02 03:00:34;;;;;;;1.23;0.50;;;14.80;59.50;;;;;;6158612;23;20037;-75
2021/05/02 03:03:03;;;;;;;2.15;0.60;;;14.90;59.50;;;;;;6167919;23;20080;-75
2021/05/02 03:05:32;;;;;;;1.98;0.75;;;14.90;59.50;;;;;;6168048;23;20018;-75
2021/05/02 03:08:02;;;;;;;1.88;0.50;;;14.80;59.40;;;;;;6157383;23;20025;-75
2021/05/02 03:10:31;;;;;;;2.47;0.68;;;14.80;59.40;;;;;;6158717;23;20097;-75
2021/05/02 03:12:59;;;;;;;2.75;0.98;;;14.80;59.30;;;;;;6158441;23;20044;-75
2021/05/02 03:15:26;;;;;;;1.90;0.52;;;14.80;59.40;;;;;;6167538;23;20017;-75
2021/05/02 03:18:03;;;;;;;1.58;0.50;;;14.80;59.40;;;;;;6167710;23;20024;-75
2021/05/02 03:20:37;;;;;;;1.33;0.55;;;14.80;59.40;;;;;;6167405;23;20303;-75
2021/05/02 03:23:28;;;;;;;2.05;0.80;;;14.80;59.40;;;;;;6167823;23;20009;-75
2021/05/02 03:25:59;;;;;;;1.73;0.57;;;14.80;59.40;;;;;;6158389;23;20092;-75
2021/05/02 03:28:50;;;;;;;1.05;0.50;;;14.80;59.40;;;;;;6168552;23;20013;-75
2021/05/02 03:31:17;;;;;;;1.73;0.80;;;14.80;59.30;;;;;;6138378;23;20287;-75
2021/05/02 03:33:47;;;;;;;1.90;0.60;;;14.80;59.40;;;;;;6167900;23;20064;-75
2021/05/02 03:36:27;;;;;;;2.13;0.63;;;14.80;59.40;;;;;;6168477;23;20009;-75
2021/05/02 03:38:53;;;;;;;3.20;0.70;;;14.80;59.30;;;;;;6167764;23;20013;-74
2021/05/02 03:41:20;;;;;;;3.00;0.70;;;14.80;59.40;;;;;;6159787;23;20013;-75
2021/05/02 03:43:47;;;;;;;1.52;0.60;;;14.80;59.30;;;;;;6169754;23;20018;-75
2021/05/02 03:46:25;;;;;;;1.63;0.55;;;14.80;59.30;;;;;;6163860;23;20327;-75
2021/05/02 03:49:05;;;;;;;1.70;0.70;;;14.80;59.30;;;;;;6169966;23;20085;-75
2021/05/02 03:51:34;;;;;;;2.45;0.70;;;14.80;59.30;;;;;;6169826;23;20009;-75
2021/05/02 03:54:01;;;;;;;2.40;0.98;;;14.80;59.30;;;;;;6159964;23;20017;-75
2021/05/02 03:56:32;;;;;;;2.05;0.80;;;14.80;59.30;;;;;;6160327;23;20018;-75
2021/05/02 03:59:20;;;;;;;1.20;0.43;;;14.80;59.30;;;;;;6169547;23;20028;-75
2021/05/02 04:01:52;;;;;;;2.25;0.60;;;14.80;59.20;;;;;;6169406;23;20009;-75
2021/05/02 04:04:20;;;;;;;2.63;0.68;;;14.70;59.20;;;;;;6169424;23;20025;-75
2021/05/02 04:06:46;;;;;;;1.88;0.82;;;14.80;59.30;;;;;;6170024;23;20024;-75
2021/05/02 04:09:14;;;;;;;2.83;0.60;;;14.70;59.20;;;;;;6169034;23;20482;-75
2021/05/02 04:11:41;;;;;;;1.38;0.60;;;14.80;59.30;;;;;;6134123;23;20088;-74
2021/05/02 04:14:09;;;;;;;1.73;0.90;;;14.70;59.20;;;;;;6169423;23;20017;-75
2021/05/02 04:16:35;;;;;;;2.05;0.60;;;14.70;59.20;;;;;;6170055;23;20009;-75
2021/05/02 04:19:01;;;;;;;2.15;0.70;;;14.70;59.20;;;;;;6169293;23;20088;-75
2021/05/02 04:21:27;;;;;;;2.00;0.80;;;14.70;59.20;;;;;;6169790;23;20044;-75
2021/05/02 04:23:54;;;;;;;3.55;0.77;;;14.70;59.20;;;;;;6169348;23;20399;-75
2021/05/02 04:26:20;;;;;;;1.73;0.47;;;14.70;59.10;;;;;;6169610;23;20083;-75
2021/05/02 04:28:46;;;;;;;2.05;0.75;;;14.70;59.10;;;;;;6169495;23;20017;-74
2021/05/02 04:31:12;;;;;;;1.13;0.55;;;14.70;59.10;;;;;;6169308;23;20029;-74
2021/05/02 04:33:38;;;;;;;2.55;0.70;;;14.70;59.10;;;;;;6159328;23;20009;-75
2021/05/02 04:36:05;;;;;;;1.85;0.65;;;14.70;59.10;;;;;;6160388;23;20088;-75
2021/05/02 04:38:31;;;;;;;1.83;0.70;;;14.70;59.10;;;;;;6169235;23;20354;-74
2021/05/02 04:40:58;;;;;;;0.82;0.50;;;14.70;59.10;;;;;;6159376;23;20017;-75
2021/05/02 04:43:23;;;;;;;1.88;0.68;;;14.70;59.80;;;;;;6169170;23;20009;-74
2021/05/02 04:45:49;;;;;;;3.00;0.70;;;14.70;59.10;;;;;;6158572;23;20109;-74
2021/05/02 04:48:15;;;;;;;1.70;0.70;;;14.70;59.10;;;;;;6169148;23;20014;-75
2021/05/02 04:50:41;;;;;;;3.38;0.73;;;14.70;59.10;;;;;;6169089;23;20406;-75
2021/05/02 04:53:07;;;;;;;3.00;0.70;;;14.70;59.10;;;;;;6169438;23;20064;-75
2021/05/02 04:55:33;;;;;;;1.60;0.65;;;14.70;59.10;;;;;;6159042;23;20419;-75
2021/05/02 04:58:01;;;;;;;1.00;0.55;;;14.70;59.10;;;;;;6143273;23;20057;-75
2021/05/02 05:00:27;;;;;;;4.20;0.77;;;14.70;59.10;;;;;;6158757;23;20429;-76
2021/05/02 05:02:54;;;;;;;1.50;0.70;;;14.70;59.10;;;;;;6169240;23;20009;-75
2021/05/02 05:05:20;;;;;;;1.25;0.70;;;14.70;59.10;;;;;;6158584;23;20018;-75
2021/05/02 05:07:46;;;;;;;2.75;0.70;;;14.70;59.10;;;;;;6168615;23;20020;-74
2021/05/02 05:10:12;;;;;;;1.27;0.60;;;14.70;59.10;;;;;;6169144;23;20013;-75
2021/05/02 05:12:39;;;;;;;2.28;0.70;;;14.60;59.10;;;;;;6168537;23;20346;-75
2021/05/02 05:15:07;;;;;;;1.85;0.80;;;14.60;59.00;;;;;;6168609;23;20296;-74
2021/05/02 05:17:33;;;;;;;1.92;0.70;;;14.60;59.10;;;;;;6159231;23;20017;-75
2021/05/02 05:19:58;;;;;;;0.82;0.50;;;14.60;59.10;;;;;;6168915;23;20092;-75
2021/05/02 05:22:24;;;;;;;3.20;0.70;;;14.60;59.00;;;;;;6158797;23;20047;-74
2021/05/02 05:24:51;;;;;;;2.05;0.63;;;14.60;59.00;;;;;;6168542;23;20414;-75
2021/05/02 05:27:17;;;;;;;1.73;0.50;;;14.60;59.00;;;;;;6159047;23;20025;-75
2021/05/02 05:29:43;;;;;;;2.08;0.75;;;14.60;59.10;;;;;;6168740;23;20407;-75
2021/05/02 05:32:09;;;;;;;2.22;0.60;;;14.60;59.10;;;;;;6159513;23;20029;-75
2021/05/02 05:34:34;;;;;;;1.65;0.50;;;14.60;59.10;;;;;;6168631;23;20084;-75
2021/05/02 05:37:00;;;;;;;1.45;0.57;;;14.60;59.10;;;;;;6168306;23;20111;-74
2021/05/02 05:39:26;;;;;;;1.60;0.77;;;14.60;59.10;;;;;;6169274;23;20020;-75
2021/05/02 05:41:52;;;;;;;1.80;0.50;;;14.60;59.20;;;;;;6159252;23;20017;-75
2021/05/02 05:44:18;;;;;;;1.45;0.80;;;14.60;59.10;;;;;;6158522;23;20032;-75
2021/05/02 05:46:44;;;;;;;1.27;0.60;;;14.60;59.10;;;;;;6160864;23;20343;-75
2021/05/02 05:49:11;;;;;;;1.80;0.68;;;14.60;59.20;;;;;;6168163;23;20014;-75
2021/05/02 05:51:37;;;;;;;0.80;0.40;;;14.60;59.30;;;;;;6168537;23;20037;-74
2021/05/02 05:54:03;;;;;;;2.25;0.70;;;14.60;59.30;;;;;;6168482;23;20013;-75
2021/05/02 05:56:29;;;;;;;1.05;0.50;;;14.60;59.30;;;;;;6168466;23;20041;-75
2021/05/02 05:58:55;;;;;;;2.85;0.98;;;14.60;59.30;;;;;;6168319;23;20010;-75
2021/05/02 06:01:20;;;;;;;1.48;0.60;;;14.60;59.40;;;;;;6142698;23;20411;-75
2021/05/02 06:03:46;;;;;;;1.20;0.50;;;14.60;59.30;;;;;;6158668;23;20014;-75
2021/05/02 06:06:12;;;;;;;2.05;0.75;;;14.60;59.30;;;;;;6168346;23;20013;-75
2021/05/02 06:08:38;;;;;;;0.90;0.50;;;14.60;59.30;;;;;;6168646;23;20021;-75
2021/05/02 06:11:04;;;;;;;1.88;0.50;;;14.60;59.40;;;;;;6168182;23;20123;-75
2021/05/02 06:13:30;;;;;;;1.45;0.57;;;14.60;59.30;;;;;;6159291;23;20034;-75
2021/05/02 06:15:55;;;;;;;0.90;0.50;;;14.60;59.30;;;;;;6158308;23;20380;-74
2021/05/02 06:18:21;;;;;;;1.25;0.50;;;14.60;59.30;;;;;;6168915;23;20024;-75
2021/05/02 06:20:47;;;;;;;1.50;0.45;;;14.60;59.20;;;;;;6168568;23;20407;-75
2021/05/02 06:23:13;;;;;;;0.93;0.47;;;14.60;59.10;;;;;;6167741;23;20021;-75
2021/05/02 06:25:40;;;;;;;1.83;0.50;;;14.60;59.10;;;;;;6158548;23;20033;-75
2021/05/02 06:28:05;;;;;;;1.75;0.50;;;14.60;59.10;;;;;;6168143;23;20403;-75
2021/05/02 06:30:31;;;;;;;1.05;0.50;;;14.60;59.10;;;;;;6168730;23;20021;-75
2021/05/02 06:33:00;;;;;;;1.40;0.43;;;14.60;59.20;;;;;;6167725;23;20009;-75
2021/05/02 06:35:26;;;;;;;3.30;0.50;;;14.60;59.20;;;;;;6168013;23;20010;-74
2021/05/02 06:37:52;;;;;;;1.35;0.50;;;14.60;59.20;;;;;;6168811;23;20080;-75
2021/05/02 06:40:18;;;;;;;1.75;0.50;;;14.60;59.20;;;;;;6168239;23;20081;-75
2021/05/02 06:42:43;;;;;;;1.95;0.50;;;14.50;59.80;;;;;;6168001;23;20018;-75
2021/05/02 06:45:10;;;;;;;1.92;0.60;;;14.60;59.20;;;;;;6158786;23;20017;-75
2021/05/02 06:47:36;;;;;;;1.98;0.60;;;14.60;59.20;;;;;;6167596;23;20411;-75
2021/05/02 06:50:02;;;;;;;2.63;0.55;;;14.60;59.30;;;;;;6158418;23;20013;-75
2021/05/02 06:52:28;;;;;;;2.15;0.80;;;14.60;59.20;;;;;;6167819;23;20013;-75
2021/05/02 06:54:55;;;;;;;2.17;0.80;;;14.60;59.20;;;;;;6168167;23;20016;-74
2021/05/02 06:57:21;;;;;;;1.65;0.57;;;14.60;59.30;;;;;;6167935;23;20299;-75
2021/05/02 06:59:46;;;;;;;2.72;0.60;;;14.60;59.30;;;;;;6167922;23;20088;-75
2021/05/02 07:02:12;;;;;;;1.85;0.63;;;14.60;59.30;;;;;;6167592;23;20009;-74
2021/05/02 07:04:38;;;;;;;1.27;0.50;;;14.60;59.30;;;;;;6158722;23;20021;-75
2021/05/02 07:07:05;;;;;;;2.67;0.73;;;14.60;59.40;;;;;;6167955;23;20009;-75
2021/05/02 07:09:31;;;;;;;1.35;0.63;;;14.70;59.50;;;;;;6167579;23;20023;-76
2021/05/02 07:11:57;;;;;;;2.92;0.43;;;14.70;59.50;;;;;;6167343;23;20016;-75
2021/05/02 07:14:23;;;;;;;4.47;0.60;;;14.70;59.60;;;;;;6168414;23;20080;-76
2021/05/02 07:16:49;;;;;;;2.03;0.70;;;14.70;59.60;;;;;;6171285;23;20013;-75
2021/05/02 07:19:15;;;;;;;1.10;0.43;;;14.60;59.60;;;;;;6171560;23;20080;-75
2021/05/02 07:21:42;;;;;;;1.20;0.63;;;14.60;59.60;;;;;;6171598;23;20300;-74
2021/05/02 07:24:08;;;;;;;0.98;0.50;;;14.60;59.70;;;;;;6171353;23;20013;-75
2021/05/02 07:26:34;;;;;;;2.38;0.68;;;14.60;59.70;;;;;;6171199;23;20033;-75
2021/05/02 07:29:00;;;;;;;2.20;0.68;;;14.60;59.80;;;;;;6171679;23;20025;-75
2021/05/02 07:31:26;;;;;;;2.47;0.60;;;14.60;59.80;;;;;;6161424;23;20013;-75
2021/05/02 07:33:53;;;;;;;0.88;0.45;;;14.60;59.80;;;;;;6171099;23;20009;-75
2021/05/02 07:36:19;;;;;;;2.60;0.80;;;14.60;59.90;;;;;;6170633;23;20450;-75
2021/05/02 07:38:45;;;;;;;1.35;0.60;;;14.60;59.90;;;;;;6171087;23;20084;-75
2021/05/02 07:41:11;;;;;;;2.15;0.50;;;14.60;60.00;;;;;;6170968;23;20091;-75
2021/05/02 07:43:39;;;;;;;1.25;0.63;;;14.60;60.00;;;;;;6171354;23;20419;-75
2021/05/02 07:46:06;;;;;;;2.67;0.75;;;14.70;60.00;;;;;;6139636;23;20009;-75
2021/05/02 07:48:32;;;;;;;2.25;0.70;;;14.60;60.00;;;;;;6171380;23;20013;-75
2021/05/02 07:50:58;;;;;;;1.88;0.80;;;14.60;60.00;;;;;;6145102;23;20075;-75
2021/05/02 07:53:24;;;;;;;1.42;0.50;;;14.60;60.00;;;;;;6171685;23;20075;-75
2021/05/02 07:55:50;;;;;;;2.33;0.80;;;14.60;60.00;;;;;;6170629;23;20362;-75
2021/05/02 07:58:16;;;;;;;1.35;0.50;;;14.60;60.00;;;;;;6170932;23;20013;-75
2021/05/02 08:00:43;;;;;;;1.70;0.80;;;14.60;60.00;;;;;;6161197;23;20025;-74
2021/05/02 08:03:08;;;;;;;1.88;0.55;;;14.60;60.10;;;;;;6171328;23;20016;-75
2021/05/02 08:05:34;;;;;;;1.25;0.50;;;14.60;60.10;;;;;;6171238;23;20268;-76
2021/05/02 08:08:00;;;;;;;1.35;0.70;;;14.60;60.10;;;;;;6171092;23;20020;-75
2021/05/02 08:10:26;;;;;;;1.55;0.68;;;14.60;60.10;;;;;;6170837;23;20136;-76
2021/05/02 08:12:53;;;;;;;2.05;0.55;;;14.60;60.10;;;;;;6171062;23;20013;-75
2021/05/02 08:15:19;;;;;;;2.10;0.60;;;14.60;60.10;;;;;;6170879;23;20080;-75
2021/05/02 08:17:45;;;;;;;2.05;0.75;;;14.60;60.10;;;;;;6170566;23;20103;-75
2021/05/02 08:20:11;;;;;;;3.33;0.70;;;14.60;60.00;;;;;;6170427;23;20009;-75
2021/05/02 08:22:37;;;;;;;1.73;0.70;;;14.70;60.00;;;;;;6170996;23;20133;-76
2021/05/02 08:25:05;;;;;;;0.88;0.52;;;14.60;60.00;;;;;;6170757;23;20435;-75
2021/05/02 08:27:32;;;;;;;1.42;0.55;;;14.70;60.10;;;;;;6159380;23;20032;-75
2021/05/02 08:29:58;;;;;;;1.38;0.60;;;14.70;60.10;;;;;;6169278;23;20021;-75
2021/05/02 08:32:24;;;;;;;3.03;0.80;;;14.70;60.10;;;;;;6169511;23;20013;-75
2021/05/02 08:34:50;;;;;;;1.55;0.60;;;14.70;60.10;;;;;;6160233;23;20080;-75
2021/05/02 08:37:16;;;;;;;1.48;0.60;;;14.70;60.10;;;;;;6169917;23;20384;-75
2021/05/02 08:39:41;;;;;;;1.30;0.60;;;14.70;60.10;;;;;;6169794;23;20017;-75
2021/05/02 08:42:07;;;;;;;2.50;0.57;;;14.70;60.10;;;;;;6169484;23;20021;-76
2021/05/02 08:44:34;;;;;;;1.58;0.40;;;14.70;60.10;;;;;;6169169;23;20021;-76
2021/05/02 08:47:00;;;;;;;1.17;0.60;;;14.70;60.10;;;;;;6159501;23;20053;-75
2021/05/02 08:49:26;;;;;;;1.80;0.63;;;14.70;60.10;;;;;;6169284;23;20076;-75
2021/05/02 08:51:52;;;;;;;1.38;0.82;;;14.70;60.10;;;;;;6169292;23;20040;-75
2021/05/02 08:54:19;;;;;;;2.40;0.82;;;14.70;60.10;;;;;;6168653;23;20009;-75
2021/05/02 08:56:45;;;;;;;1.52;0.60;;;14.70;60.20;;;;;;6169106;23;20013;-75
2021/05/02 08:59:12;;;;;;;1.20;0.50;;;14.70;60.20;;;;;;6169530;23;20009;-75
2021/05/02 09:01:40;;;;;;;1.65;0.90;;;14.70;60.20;;;;;;6169042;23;20303;-76
2021/05/02 09:04:07;;;;;;;3.53;0.93;;;14.70;60.20;;;;;;6168992;23;20429;-75
2021/05/02 09:06:35;;;;;;;2.28;0.77;;;14.70;60.20;;;;;;6168890;23;20014;-75
2021/05/02 09:09:05;;;;;;;1.60;0.40;;;14.70;60.10;;;;;;6158925;23;20017;-75
2021/05/02 09:11:35;;;;;;;1.90;0.65;;;14.70;60.10;;;;;;6158353;23;20407;-75
2021/05/02 09:14:03;;;;;;;1.02;0.57;;;14.70;60.10;;;;;;6169243;23;20020;-76
2021/05/02 09:16:51;;;;;;;1.27;0.60;;;14.70;60.10;;;;;;6168886;23;20021;-75
2021/05/02 09:19:21;;;;;;;2.72;0.63;;;14.70;60.10;;;;;;6168249;23;20043;-75
2021/05/02 09:21:47;;;;;;;1.60;0.50;;;14.70;60.10;;;;;;6169548;23;20020;-76
2021/05/02 09:24:27;;;;;;;1.85;0.60;;;14.70;60.10;;;;;;6168679;23;20009;-76
2021/05/02 09:27:15;;;;;;;1.52;0.80;;;14.70;60.10;;;;;;6169467;23;20021;-76
2021/05/02 09:29:44;;;;;;;1.52;0.50;;;14.80;60.20;;;;;;6168685;23;20040;-76
2021/05/02 09:32:11;;;;;;;1.60;0.50;;;14.70;60.20;;;;;;6168827;23;20380;-75
2021/05/02 09:34:37;;;;;;;2.88;0.70;;;14.70;60.20;;;;;;6169028;23;20287;-76
2021/05/02 09:37:06;;;;;;;0.80;0.47;;;14.80;60.20;;;;;;6143129;23;20013;-76
2021/05/02 09:39:41;;;;;;;2.63;0.73;;;14.70;60.20;;;;;;6168901;23;20410;-75
2021/05/02 09:42:14;;;;;;;1.20;0.57;;;14.80;60.20;;;;;;6158766;23;20303;-75
2021/05/02 09:44:47;;;;;;;1.42;0.45;;;14.70;60.20;;;;;;6168612;23;20013;-75
2021/05/02 09:47:24;;;;;;;1.48;0.30;;;14.70;60.20;;;;;;6160770;23;20418;-75
2021/05/02 09:50:19;;;;;;;1.52;0.65;;;14.80;60.30;;;;;;6168107;23;20022;-75
2021/05/02 09:52:57;;;;;;;1.15;0.52;;;14.80;60.20;;;;;;6168389;23;20010;-75
2021/05/02 09:55:31;;;;;;;2.22;0.60;;;14.70;60.20;;;;;;6168125;23;20033;-75
2021/05/02 09:58:05;;;;;;;1.38;0.50;;;14.80;60.30;;;;;;6168482;23;20033;-75
2021/05/02 10:00:51;;;;;;;;;;;14.80;60.90;;;;;;6168648;23;20016;-75
2021/05/02 10:03:25;;;;;;;1.45;0.68;;;14.80;60.30;;;;;;6133799;23;20206;-75
2021/05/02 10:06:09;;;;;;;0.63;0.40;;;14.70;60.30;;;;;;6159475;23;20089;-75
2021/05/02 10:08:39;;;;;;;2.13;0.50;;;14.70;60.30;;;;;;6158856;23;20013;-76
2021/05/02 10:11:07;;;;;;;0.80;0.47;;;14.70;60.20;;;;;;6168260;23;20014;-75
2021/05/02 10:13:35;;;;;;;1.00;0.50;;;14.80;60.30;;;;;;6168225;23;20013;-75
2021/05/02 10:16:01;;;;;;;1.13;0.43;;;14.70;60.20;;;;;;6169198;23;20033;-75
2021/05/02 10:18:27;;;;;;;1.35;0.73;;;14.80;60.20;;;;;;6158460;23;20025;-75
2021/05/02 10:20:53;;;;;;;1.45;0.63;;;14.80;60.20;;;;;;6159315;23;20265;-76
2021/05/02 10:23:20;;;;;;;2.13;0.50;;;14.80;60.20;;;;;;6168950;23;20089;-75
2021/05/02 10:25:48;;;;;;;2.88;0.70;;;14.80;60.20;;;;;;6158272;23;20023;-76
2021/05/02 10:28:31;;;;;;;1.40;0.65;;;14.80;60.20;;;;;;6168194;23;20017;-76
2021/05/02 10:31:00;;;;;;;1.33;0.68;;;14.80;60.20;;;;;;6158194;23;20036;-75
2021/05/02 10:33:40;;;;;;;2.17;0.65;;;14.80;60.20;;;;;;6168171;23;20430;-76
2021/05/02 10:36:20;;;;;;;2.15;0.60;;;14.80;60.20;;;;;;6168204;23;20014;-75
2021/05/02 10:38:57;;;;;;;1.60;0.65;;;14.80;60.20;;;;;;6168148;23;20009;-76
2021/05/02 10:41:34;;;;;;;1.50;0.70;;;14.80;60.20;;;;;;6168127;23;20013;-76
2021/05/02 10:44:12;;;;;;;2.75;0.70;;;14.80;60.20;;;;;;6168084;23;20096;-76
2021/05/02 10:46:53;;;;;;;2.00;0.50;;;14.80;60.20;;;;;;6162038;23;20081;-75
2021/05/02 10:49:19;;;;;;;1.30;0.60;;;14.80;60.20;;;;;;6167292;23;20314;-75
2021/05/02 10:51:46;;;;;;;1.50;0.60;;;14.80;60.20;;;;;;6167944;23;20005;-75
2021/05/02 10:54:18;;;;;;;1.35;0.77;;;14.80;60.20;;;;;;6168058;23;20395;-75
2021/05/02 10:56:58;;;;;;;1.58;0.43;;;14.80;60.20;;;;;;6168037;23;20013;-75
2021/05/02 11:00:02;;;;;;;1.75;0.63;;;14.80;60.20;;;;;;6158956;23;20009;-75
2021/05/02 11:02:42;;;;;;;1.92;0.75;;;14.80;60.20;;;;;;6168003;23;20013;-75
2021/05/02 11:05:11;;;;;;;1.10;0.60;;;14.80;60.20;;;;;;6168514;23;20049;-75
2021/05/02 11:07:39;;;;;;;1.13;0.65;;;14.80;60.20;;;;;;6168570;23;20014;-75
2021/05/02 11:10:08;;;;;;;3.78;0.70;;;14.80;60.20;;;;;;6168515;23;20009;-75
2021/05/02 11:12:35;;;;;;;1.20;0.63;;;14.80;60.10;;;;;;6167412;23;20419;-75
2021/05/02 11:15:21;;;;;;;3.95;0.80;;;14.80;60.10;;;;;;6167707;23;20017;-75
2021/05/02 11:17:46;;;;;;;0.98;0.50;;;14.80;60.10;;;;;;6158497;23;20010;-75
2021/05/02 11:20:44;;;;;;;1.25;0.60;;;14.80;60.10;;;;;;6157595;23;20013;-75
2021/05/02 11:23:10;;;;;;;1.63;0.50;;;14.80;60.10;;;;;;6168180;23;20036;-75
2021/05/02 11:25:42;;;;;;;1.65;0.55;;;14.80;60.10;;;;;;6168226;23;20415;-76
2021/05/02 11:28:31;;;;;;;3.03;0.50;;;14.80;60.10;;;;;;6168005;23;20082;-75
2021/05/02 11:30:57;;;;;;;2.17;0.70;;;14.80;60.00;;;;;;6158702;23;20021;-75
2021/05/02 11:33:25;;;;;;;2.63;0.60;;;14.80;59.70;;;;;;6167294;23;20299;-75
2021/05/02 11:35:55;;;;;;;2.65;0.63;;;14.80;59.70;;;;;;6167774;23;20009;-75
2021/05/02 11:38:33;;;;;;;1.10;0.60;;;14.80;59.70;;;;;;6167680;23;20014;-75
2021/05/02 11:41:03;;;;;;;1.33;0.40;;;14.80;59.70;;;;;;6167800;23;20013;-75
2021/05/02 11:43:29;;;;;;;1.00;0.55;;;14.80;59.80;;;;;;6142468;23;20080;-75
2021/05/02 11:45:58;;;;;;;7.65;0.90;;;14.80;59.80;;;;;;6164281;23;20342;-75
2021/05/02 11:48:31;;;;;;;1.30;0.60;;;14.80;59.80;;;;;;6168368;23;20014;-76
2021/05/02 11:51:08;;;;;;;1.08;0.47;;;14.80;59.90;;;;;;6167492;23;20363;-76
2021/05/02 11:53:41;;;;;;;3.25;0.75;;;14.80;59.90;;;;;;6168120;23;20020;-76
2021/05/02 11:56:14;;;;;;;1.40;0.60;;;14.80;59.90;;;;;;6168048;23;20037;-75
2021/05/02 11:58:40;;;;;;;1.52;0.70;;;14.80;60.00;;;;;;6168171;23;20045;-75
2021/05/02 12:01:27;;;;;;;2.20;0.98;;;14.80;60.00;;;;;;6158702;23;20014;-75
2021/05/02 12:04:02;;;;;;;1.20;0.52;;;14.80;60.00;;;;;;6169494;23;20140;-75
2021/05/02 12:06:30;;;;;;;2.38;0.70;;;14.80;60.00;;;;;;6169798;23;20411;-75
2021/05/02 12:08:57;;;;;;;1.65;0.40;;;14.80;60.00;;;;;;6170262;23;20021;-75
2021/05/02 12:11:25;;;;;;;1.75;0.50;;;14.80;60.00;;;;;;6169508;23;20096;-75
2021/05/02 12:13:54;;;;;;;1.40;0.60;;;14.80;60.00;;;;;;6169690;23;20037;-75
2021/05/02 12:16:27;;;;;;;1.42;0.50;;;14.80;60.00;;;;;;6169495;23;20013;-76
2021/05/02 12:18:57;;;;;;;2.15;0.60;;;14.80;60.00;;;;;;6169498;23;20021;-75
2021/05/02 12:21:28;;;;;;;1.42;0.70;;;14.80;60.00;;;;;;6169438;23;20010;-75
2021/05/02 12:24:20;;;;;;;2.95;0.80;;;14.80;60.00;;;;;;6160122;23;20013;-76
2021/05/02 12:26:53;;;;;;;1.25;0.50;;;14.80;60.00;;;;;;6168900;23;20458;-75
2021/05/02 12:29:32;;;;;;;1.15;0.57;;;14.80;60.00;;;;;;6144467;23;20437;-76
2021/05/02 12:32:02;;;;;;;1.55;0.50;;;14.80;60.00;;;;;;6169250;23;20037;-75
2021/05/02 12:34:33;;;;;;;3.00;0.50;;;14.80;60.00;;;;;;6169568;23;20024;-75
2021/05/02 12:37:20;;;;;;;1.73;0.50;;;14.80;60.00;;;;;;6168967;23;20280;-75
2021/05/02 12:39:51;;;;;;;1.60;0.63;;;14.80;60.00;;;;;;6159482;23;20067;-76
2021/05/02 12:42:31;;;;;;;1.42;0.40;;;14.80;60.10;;;;;;6159776;23;20311;-75
2021/05/02 12:44:57;;;;;;;1.15;0.55;;;14.80;60.00;;;;;;6170407;23;20454;-75
2021/05/02 12:47:27;;;;;;;1.25;0.60;;;14.80;60.00;;;;;;6159891;23;20020;-76
2021/05/02 12:49:58;;;;;;;1.10;0.40;;;14.80;59.90;;;;;;6169130;23;20021;-75
2021/05/02 12:52:40;;;;;;;2.05;0.60;;;14.80;59.90;;;;;;6168956;23;20010;-75
2021/05/02 12:55:26;;;;;;;2.47;0.70;;;14.80;59.90;;;;;;6169471;23;20016;-76
2021/05/02 12:57:57;;;;;;;1.40;0.60;;;14.80;59.80;;;;;;6168856;23;20009;-76
2021/05/02 13:00:31;;;;;;;1.30;0.50;;;14.80;59.80;;;;;;6169229;23;20429;-76